sensor_id;sensor_type;location;lat;lon;timestamp;P1;durP1;ratioP1;P2;durP2;ratioP2
65092;SDS011;52025;50.288;2.794;2022-11-04T07:18:45;7.75;;;1.83;;
65092;SDS011;52025;50.288;2.794;2022-11-04T07:36:39;7.28;;;1.77;;
65092;SDS011;52025;50.288;2.794;2022-11-04T07:39:15;5.38;;;1.50;;
65092;SDS011;52025;50.288;2.794;2022-11-04T07:42:02;6.30;;;1.73;;
65092;SDS011;52025;50.288;2.794;2022-11-04T07:44:40;9.90;;;4.15;;
65092;SDS011;52025;50.288;2.794;2022-11-04T07:47:11;9.23;;;3.20;;
65092;SDS011;52025;50.288;2.794;2022-11-04T08:33:02;5.70;;;1.15;;
65092;SDS011;52025;50.288;2.794;2022-11-04T08:35:33;29.48;;;4.70;;
65092;SDS011;52025;50.288;2.794;2022-11-04T08:38:06;6.22;;;1.30;;
65092;SDS011;52025;50.288;2.794;2022-11-04T11:34:24;9.32;;;1.70;;
65092;SDS011;52025;50.288;2.794;2022-11-04T12:00:12;5.50;;;1.55;;
65092;SDS011;52025;50.288;2.794;2022-11-04T12:02:49;7.10;;;1.67;;
65092;SDS011;52025;50.288;2.794;2022-11-04T12:05:18;4.47;;;1.65;;
65092;SDS011;52025;50.288;2.794;2022-11-04T12:15:45;8.02;;;2.20;;
65092;SDS011;52025;50.288;2.794;2022-11-04T12:21:05;5.40;;;1.55;;
65092;SDS011;52025;50.288;2.794;2022-11-04T12:54:28;5.70;;;2.00;;
65092;SDS011;52025;50.288;2.794;2022-11-04T12:57:10;6.47;;;1.80;;
65092;SDS011;52025;50.288;2.794;2022-11-04T13:11:32;7.88;;;2.00;;
65092;SDS011;52025;50.288;2.794;2022-11-04T13:14:17;5.50;;;1.63;;
65092;SDS011;52025;50.288;2.794;2022-11-04T13:16:47;3.95;;;1.58;;
65092;SDS011;52025;50.288;2.794;2022-11-04T13:21:48;4.15;;;1.70;;
65092;SDS011;52025;50.288;2.794;2022-11-04T13:24:36;8.48;;;1.60;;
65092;SDS011;52025;50.288;2.794;2022-11-04T13:27:05;3.90;;;1.27;;
65092;SDS011;52025;50.288;2.794;2022-11-04T13:29:40;3.55;;;1.58;;
65092;SDS011;52025;50.288;2.794;2022-11-04T13:32:27;3.80;;;1.58;;
65092;SDS011;52025;50.288;2.794;2022-11-04T13:40:10;4.05;;;1.10;;
65092;SDS011;52025;50.288;2.794;2022-11-04T13:45:12;7.18;;;1.50;;
65092;SDS011;52025;50.288;2.794;2022-11-04T13:48:02;4.50;;;1.10;;
65092;SDS011;52025;50.288;2.794;2022-11-04T13:50:36;4.35;;;1.40;;
65092;SDS011;52025;50.288;2.794;2022-11-04T13:53:11;2.85;;;1.35;;
65092;SDS011;52025;50.288;2.794;2022-11-04T13:58:50;3.15;;;1.63;;
65092;SDS011;52025;50.288;2.794;2022-11-04T14:03:53;3.08;;;1.30;;
65092;SDS011;52025;50.288;2.794;2022-11-04T14:22:34;2.10;;;0.90;;
65092;SDS011;52025;50.288;2.794;2022-11-04T14:25:17;2.85;;;1.08;;
65092;SDS011;52025;50.288;2.794;2022-11-04T14:27:46;2.45;;;0.90;;
65092;SDS011;52025;50.288;2.794;2022-11-04T14:35:48;3.00;;;0.60;;
65092;SDS011;52025;50.288;2.794;2022-11-04T14:38:19;2.22;;;0.70;;
65092;SDS011;52025;50.288;2.794;2022-11-04T14:43:49;6.95;;;2.80;;
65092;SDS011;52025;50.288;2.794;2022-11-04T14:46:30;3.92;;;1.00;;
65092;SDS011;52025;50.288;2.794;2022-11-04T15:01:07;3.38;;;1.83;;
65092;SDS011;52025;50.288;2.794;2022-11-04T15:03:41;2.03;;;1.00;;
65092;SDS011;52025;50.288;2.794;2022-11-04T15:06:33;3.10;;;1.08;;
65092;SDS011;52025;50.288;2.794;2022-11-04T15:09:21;4.80;;;1.30;;
65092;SDS011;52025;50.288;2.794;2022-11-04T15:14:52;2.83;;;0.70;;
65092;SDS011;52025;50.288;2.794;2022-11-04T15:17:18;2.88;;;0.90;;
65092;SDS011;52025;50.288;2.794;2022-11-04T15:19:46;5.43;;;1.20;;
65092;SDS011;52025;50.288;2.794;2022-11-04T15:22:12;4.18;;;0.98;;
65092;SDS011;52025;50.288;2.794;2022-11-04T15:24:38;5.00;;;1.02;;
65092;SDS011;52025;50.288;2.794;2022-11-04T15:27:09;5.65;;;1.10;;
65092;SDS011;52025;50.288;2.794;2022-11-04T15:29:37;2.03;;;0.90;;
65092;SDS011;52025;50.288;2.794;2022-11-04T15:32:03;2.58;;;1.10;;
65092;SDS011;52025;50.288;2.794;2022-11-04T15:34:35;4.10;;;1.02;;
65092;SDS011;52025;50.288;2.794;2022-11-04T15:37:01;5.63;;;1.27;;
65092;SDS011;52025;50.288;2.794;2022-11-04T15:39:40;3.20;;;0.93;;
65092;SDS011;52025;50.288;2.794;2022-11-04T15:45:31;1.92;;;0.95;;
65092;SDS011;52025;50.288;2.794;2022-11-04T16:27:32;8.27;;;3.67;;
65092;SDS011;52025;50.288;2.794;2022-11-04T16:30:08;7.68;;;2.72;;
65092;SDS011;52025;50.288;2.794;2022-11-04T17:01:14;24.92;;;9.75;;
65092;SDS011;52025;50.288;2.794;2022-11-04T17:03:43;17.33;;;5.32;;
65092;SDS011;52025;50.288;2.794;2022-11-04T18:00:08;7.63;;;2.22;;
65092;SDS011;52025;50.288;2.794;2022-11-04T18:45:15;8.77;;;2.60;;
65092;SDS011;52025;50.288;2.794;2022-11-04T19:46:03;9.43;;;3.20;;
65092;SDS011;52025;50.288;2.794;2022-11-04T19:48:29;12.68;;;4.28;;
65092;SDS011;52025;50.288;2.794;2022-11-04T19:50:54;9.93;;;3.10;;
65092;SDS011;52025;50.288;2.794;2022-11-04T19:53:20;10.20;;;3.22;;
65092;SDS011;52025;50.288;2.794;2022-11-04T19:55:49;9.05;;;3.45;;
65092;SDS011;52025;50.288;2.794;2022-11-04T19:58:14;11.90;;;3.40;;
65092;SDS011;52025;50.288;2.794;2022-11-04T20:00:40;8.02;;;3.17;;
65092;SDS011;52025;50.288;2.794;2022-11-04T20:03:05;9.38;;;3.50;;
65092;SDS011;52025;50.288;2.794;2022-11-04T20:05:34;8.23;;;3.47;;
65092;SDS011;52025;50.288;2.794;2022-11-04T20:07:59;10.25;;;3.40;;
65092;SDS011;52025;50.288;2.794;2022-11-04T20:10:25;8.38;;;3.58;;
65092;SDS011;52025;50.288;2.794;2022-11-04T20:12:50;11.68;;;4.07;;
65092;SDS011;52025;50.288;2.794;2022-11-04T20:15:34;9.27;;;3.70;;
65092;SDS011;52025;50.288;2.794;2022-11-04T20:18:00;7.90;;;3.08;;
65092;SDS011;52025;50.288;2.794;2022-11-04T20:20:25;10.07;;;3.67;;
65092;SDS011;52025;50.288;2.794;2022-11-04T20:22:51;9.98;;;3.50;;
65092;SDS011;52025;50.288;2.794;2022-11-04T20:25:16;10.02;;;3.60;;
65092;SDS011;52025;50.288;2.794;2022-11-04T20:27:41;11.30;;;3.20;;
65092;SDS011;52025;50.288;2.794;2022-11-04T20:40:28;8.50;;;3.25;;
65092;SDS011;52025;50.288;2.794;2022-11-04T20:43:00;8.25;;;2.80;;
65092;SDS011;52025;50.288;2.794;2022-11-04T20:45:28;6.57;;;2.97;;
65092;SDS011;52025;50.288;2.794;2022-11-04T20:47:57;9.73;;;3.53;;
65092;SDS011;52025;50.288;2.794;2022-11-04T20:50:23;9.85;;;3.03;;
65092;SDS011;52025;50.288;2.794;2022-11-04T20:52:52;7.75;;;3.42;;
65092;SDS011;52025;50.288;2.794;2022-11-04T20:55:17;8.88;;;3.70;;
65092;SDS011;52025;50.288;2.794;2022-11-04T20:57:43;10.25;;;3.30;;
65092;SDS011;52025;50.288;2.794;2022-11-04T21:00:08;8.77;;;3.10;;
65092;SDS011;52025;50.288;2.794;2022-11-04T21:02:34;9.85;;;3.67;;
65092;SDS011;52025;50.288;2.794;2022-11-04T21:04:59;10.23;;;3.88;;
65092;SDS011;52025;50.288;2.794;2022-11-04T21:07:34;10.35;;;3.63;;
65092;SDS011;52025;50.288;2.794;2022-11-04T21:10:01;8.05;;;3.60;;
65092;SDS011;52025;50.288;2.794;2022-11-04T21:20:18;7.45;;;3.58;;
65092;SDS011;52025;50.288;2.794;2022-11-04T21:22:44;10.00;;;4.68;;
65092;SDS011;52025;50.288;2.794;2022-11-04T21:38:00;10.60;;;3.67;;
65092;SDS011;52025;50.288;2.794;2022-11-04T21:40:28;9.38;;;3.92;;
65092;SDS011;52025;50.288;2.794;2022-11-04T21:42:54;12.60;;;4.13;;
65092;SDS011;52025;50.288;2.794;2022-11-04T21:45:21;9.18;;;3.75;;
65092;SDS011;52025;50.288;2.794;2022-11-04T21:50:33;9.13;;;3.83;;
65092;SDS011;52025;50.288;2.794;2022-11-04T21:53:06;9.57;;;4.40;;
65092;SDS011;52025;50.288;2.794;2022-11-04T21:55:32;11.73;;;4.60;;
65092;SDS011;52025;50.288;2.794;2022-11-04T22:00:27;11.73;;;5.07;;
65092;SDS011;52025;50.288;2.794;2022-11-04T22:02:54;11.18;;;3.90;;
65092;SDS011;52025;50.288;2.794;2022-11-04T22:05:28;14.63;;;4.47;;
65092;SDS011;52025;50.288;2.794;2022-11-04T22:07:58;7.95;;;3.60;;
65092;SDS011;52025;50.288;2.794;2022-11-04T22:10:49;8.50;;;3.85;;
65092;SDS011;52025;50.288;2.794;2022-11-04T22:13:26;8.68;;;3.38;;
65092;SDS011;52025;50.288;2.794;2022-11-04T22:15:59;6.80;;;3.35;;
65092;SDS011;52025;50.288;2.794;2022-11-04T22:18:30;11.93;;;4.18;;
65092;SDS011;52025;50.288;2.794;2022-11-04T22:44:38;7.80;;;3.10;;
65092;SDS011;52025;50.288;2.794;2022-11-04T23:10:40;8.35;;;2.97;;
65092;SDS011;52025;50.288;2.794;2022-11-04T23:52:57;8.07;;;2.80;;
